Time;durP1;ratioP1;P1;durP2;ratioP2;P2;SDS_P1;SDS_P2;PMS_P1;PMS_P2;Temp;Humidity;BMP_temperature;BMP_pressure;BME280_temperature;BME280_humidity;BME280_pressure;Samples;Min_cycle;Max_cycle;Signal;HPM_P1;HPM_P2
2021/05/19 00:01:21;;;;;;;11.13;10.33;;;;;;;9.33;86.05;100331.94;5083903;28;20266;-75
2021/05/19 00:03:47;;;;;;;11.50;10.40;;;;;;;9.32;85.64;100326.78;5082969;28;20234;-75
2021/05/19 00:06:13;;;;;;;11.10;10.07;;;;;;;9.37;85.57;100329.31;5083348;28;20701;-76
2021/05/19 00:08:39;;;;;;;11.00;10.10;;;;;;;9.40;85.29;100335.31;5083659;28;20960;-76
2021/05/19 00:11:05;;;;;;;12.03;11.07;;;;;;;9.39;84.98;100330.97;5083525;28;20241;-74
2021/05/19 00:13:33;;;;;;;11.07;10.27;;;;;;;9.39;85.17;100328.38;5083469;28;21019;-76
2021/05/19 00:16:00;;;;;;;11.33;10.47;;;;;;;9.40;85.03;100324.91;5082878;28;20209;-77
2021/05/19 00:18:26;;;;;;;10.80;10.00;;;;;;;9.37;85.21;100322.34;5082996;28;20265;-75
2021/05/19 00:20:52;;;;;;;11.80;11.00;;;;;;;9.40;84.94;100330.13;5083075;28;20206;-76
2021/05/19 00:23:18;;;;;;;11.93;11.03;;;;;;;9.37;85.13;100324.94;5082814;28;20262;-76
2021/05/19 00:25:44;;;;;;;13.00;11.80;;;;;;;9.31;84.88;100335.47;5083948;28;20696;-76
2021/05/19 00:28:09;;;;;;;12.00;10.83;;;;;;;9.35;85.66;100331.91;5083216;28;20228;-76
2021/05/19 00:30:37;;;;;;;11.87;10.77;;;;;;;9.37;85.68;100330.16;5083441;28;20241;-74
2021/05/19 00:33:05;;;;;;;13.17;10.47;;;;;;;9.36;85.51;100325.84;5081788;28;20624;-76
2021/05/19 00:35:31;;;;;;;12.67;11.77;;;;;;;9.33;85.70;100328.47;5083159;28;20223;-76
2021/05/19 00:37:56;;;;;;;12.23;11.07;;;;;;;9.32;85.13;100334.59;5083237;28;20681;-77
2021/05/19 00:40:22;;;;;;;11.77;10.80;;;;;;;9.24;86.12;100328.66;5083000;28;20221;-75
2021/05/19 00:42:51;;;;;;;11.80;10.80;;;;;;;9.29;85.59;100326.81;5082666;28;20210;-76
2021/05/19 00:45:18;;;;;;;10.87;9.97;;;;;;;9.28;85.75;100330.31;5082755;28;20285;-76
2021/05/19 00:47:44;;;;;;;11.57;10.57;;;;;;;9.33;84.54;100333.69;5082384;28;20263;-75
2021/05/19 00:50:15;;;;;;;10.90;10.00;;;;;;;9.28;85.02;100328.56;5082315;28;20278;-76
2021/05/19 00:52:40;;;;;;;11.90;10.87;;;;;;;9.29;84.53;100334.63;5082393;28;20241;-75
2021/05/19 00:55:08;;;;;;;11.80;10.77;;;;;;;9.22;84.86;100336.47;5082938;28;20205;-76
2021/05/19 00:57:34;;;;;;;11.37;10.33;;;;;;;9.20;85.50;100333.03;5082415;28;21143;-75
2021/05/19 01:00:01;;;;;;;11.37;10.47;;;;;;;9.24;84.47;100334.72;5082505;28;20237;-76
2021/05/19 01:02:27;;;;;;;12.03;11.13;;;;;;;9.22;85.11;100333.00;5082750;28;20211;-76
2021/05/19 01:04:53;;;;;;;11.63;10.80;;;;;;;9.17;85.16;100338.28;5082669;28;20648;-75
2021/05/19 01:07:24;;;;;;;11.73;10.83;;;;;;;9.22;85.15;100331.25;5082927;28;20324;-77
2021/05/19 01:09:49;;;;;;;11.23;10.37;;;;;;;9.25;84.95;100332.94;5082091;28;20743;-77
2021/05/19 01:12:17;;;;;;;11.73;10.73;;;;;;;9.21;85.31;100331.28;5082818;28;20210;-77
2021/05/19 01:14:43;;;;;;;12.33;10.50;;;;;;;9.24;85.50;100331.25;5081698;28;20312;-76
2021/05/19 01:17:10;;;;;;;11.60;10.50;;;;;;;9.25;85.09;100335.56;5082045;28;20242;-76
2021/05/19 01:19:40;;;;;;;11.77;10.87;;;;;;;9.27;84.92;100329.44;5082069;28;20232;-76
2021/05/19 01:22:08;;;;;;;11.77;10.87;;;;;;;9.24;85.53;100324.28;5082246;28;20245;-76
2021/05/19 01:24:34;;;;;;;12.43;11.43;;;;;;;9.28;84.95;100327.72;5081668;28;20638;-76
2021/05/19 01:27:00;;;;;;;10.13;9.23;;;;;;;9.29;85.61;100332.03;5082034;28;20491;-76
2021/05/19 01:29:25;;;;;;;10.37;9.60;;;;;;;9.30;85.23;100332.00;5082390;28;20301;-76
2021/05/19 01:31:52;;;;;;;11.30;10.43;;;;;;;9.29;85.24;100337.22;5082458;28;20200;-76
2021/05/19 01:34:17;;;;;;;12.50;11.30;;;;;;;9.26;85.91;100332.94;5081824;28;20208;-77
2021/05/19 01:36:43;;;;;;;11.60;10.63;;;;;;;9.30;86.17;100337.22;5082445;28;20204;-76
2021/05/19 01:39:10;;;;;;;11.03;10.10;;;;;;;9.33;85.83;100331.09;5082131;28;20230;-76
2021/05/19 01:41:37;;;;;;;10.93;9.93;;;;;;;9.34;85.70;100336.28;5082554;28;21471;-77
2021/05/19 01:44:09;;;;;;;11.67;10.57;;;;;;;9.33;85.42;100329.34;5082452;28;20683;-75
2021/05/19 01:46:35;;;;;;;11.07;10.13;;;;;;;9.37;86.29;100339.72;5081947;28;20263;-77
2021/05/19 01:49:01;;;;;;;11.50;10.60;;;;;;;9.40;86.09;100335.31;5081940;28;20254;-76
2021/05/19 01:51:29;;;;;;;11.43;10.63;;;;;;;9.41;85.88;100328.38;5081861;28;20230;-74
2021/05/19 01:53:55;;;;;;;12.73;11.63;;;;;;;9.43;85.57;100335.25;5081399;28;20208;-76
2021/05/19 01:56:22;;;;;;;11.37;10.57;;;;;;;9.47;85.84;100343.91;5082518;28;20202;-76
2021/05/19 01:58:48;;;;;;;11.10;10.27;;;;;;;9.45;85.67;100340.47;5082047;28;20739;-75
2021/05/19 02:01:14;;;;;;;12.63;11.40;;;;;;;9.48;85.55;100346.47;5081926;28;20205;-76
2021/05/19 02:03:40;;;;;;;10.97;10.07;;;;;;;9.54;85.99;100337.72;5081261;28;20236;-76
2021/05/19 02:06:06;;;;;;;11.27;10.40;;;;;;;9.56;85.91;100338.53;5082450;28;20206;-75
2021/05/19 02:08:32;;;;;;;12.03;10.97;;;;;;;9.48;85.87;100340.41;5082126;28;20573;-76
2021/05/19 02:10:58;;;;;;;11.60;10.63;;;;;;;9.50;85.67;100339.50;5081982;28;20202;-75
2021/05/19 02:13:25;;;;;;;13.27;12.27;;;;;;;9.47;85.95;100343.91;5081749;28;20690;-76
2021/05/19 02:15:51;;;;;;;13.17;12.07;;;;;;;9.49;86.03;100343.00;5082008;28;20239;-76
2021/05/19 02:18:16;;;;;;;11.87;11.03;;;;;;;9.35;85.96;100344.94;5080834;28;20231;-75
2021/05/19 02:20:42;;;;;;;12.57;11.63;;;;;;;9.28;86.34;100344.19;5081578;28;20290;-75
2021/05/19 02:23:08;;;;;;;12.83;11.73;;;;;;;9.37;86.48;100351.00;5081163;28;20201;-77
2021/05/19 02:25:34;;;;;;;13.10;12.10;;;;;;;9.34;86.72;100351.91;5081404;28;20290;-75
2021/05/19 02:28:00;;;;;;;12.73;11.80;;;;;;;9.21;86.86;100352.13;5080566;28;20224;-76
2021/05/19 02:30:27;;;;;;;13.17;12.07;;;;;;;9.11;87.17;100343.56;5081628;28;20690;-76
2021/05/19 02:32:53;;;;;;;12.50;11.47;;;;;;;9.08;87.55;100351.44;5082749;28;20705;-76
2021/05/19 02:35:19;;;;;;;13.17;12.17;;;;;;;9.19;87.70;100341.72;5084993;28;20207;-75
2021/05/19 02:37:46;;;;;;;12.77;11.77;;;;;;;9.11;87.87;100346.19;5084715;28;20690;-76
2021/05/19 02:40:15;;;;;;;13.40;12.30;;;;;;;8.99;87.90;100346.34;5083869;28;20311;-76
2021/05/19 02:42:41;;;;;;;14.23;13.03;;;;;;;8.83;88.39;100346.56;5084668;28;20302;-77
2021/05/19 02:45:09;;;;;;;13.37;12.27;;;;;;;8.96;88.79;100349.88;5084482;28;20242;-76
2021/05/19 02:47:35;;;;;;;13.23;12.23;;;;;;;8.99;88.39;100349.81;5084278;28;20256;-75
2021/05/19 02:50:02;;;;;;;13.20;11.93;;;;;;;9.03;88.71;100348.88;5085169;28;20229;-76
2021/05/19 02:52:28;;;;;;;13.63;12.63;;;;;;;9.06;89.00;100355.81;5085174;28;20223;-75
2021/05/19 02:54:54;;;;;;;12.80;11.73;;;;;;;9.08;88.19;100349.69;5085184;28;20215;-76
2021/05/19 02:57:20;;;;;;;12.63;11.63;;;;;;;9.17;88.87;100351.28;5084946;28;20204;-77
2021/05/19 02:59:46;;;;;;;11.97;10.97;;;;;;;9.22;87.93;100351.25;5085167;28;20220;-76
2021/05/19 03:02:12;;;;;;;12.87;11.57;;;;;;;9.25;88.34;100359.84;5084741;28;20209;-76
2021/05/19 03:04:38;;;;;;;12.87;11.87;;;;;;;9.21;87.63;100362.53;5084713;28;20237;-76
2021/05/19 03:07:05;;;;;;;13.07;11.97;;;;;;;9.30;87.90;100362.41;5084982;28;20551;-75
2021/05/19 03:09:30;;;;;;;13.20;12.20;;;;;;;9.19;87.69;100364.28;5084743;28;20745;-76
2021/05/19 03:11:56;;;;;;;13.90;12.80;;;;;;;9.29;88.13;100369.34;5085083;28;20624;-76
2021/05/19 03:14:22;;;;;;;13.20;12.10;;;;;;;9.38;87.37;100370.13;5084895;28;20768;-76
2021/05/19 03:16:48;;;;;;;13.23;12.07;;;;;;;9.37;87.37;100365.78;5084782;28;20744;-76
2021/05/19 03:19:14;;;;;;;14.23;13.03;;;;;;;9.12;88.04;100366.13;5083933;28;20220;-75
2021/05/19 03:21:41;;;;;;;14.27;13.03;;;;;;;9.07;88.10;100365.34;5084644;28;20675;-76
2021/05/19 03:24:07;;;;;;;14.50;13.03;;;;;;;9.15;88.27;100372.13;5084786;28;21177;-76
2021/05/19 03:26:33;;;;;;;13.43;12.43;;;;;;;9.22;87.68;100366.88;5084287;28;20727;-74
2021/05/19 03:28:59;;;;;;;12.67;11.57;;;;;;;9.32;88.01;100369.31;5084519;28;20224;-77
2021/05/19 03:31:25;;;;;;;13.57;12.33;;;;;;;9.25;87.45;100369.41;5084597;28;20202;-76
2021/05/19 03:33:51;;;;;;;14.97;13.47;;;;;;;9.17;87.71;100372.13;5084209;28;20209;-74
2021/05/19 03:36:17;;;;;;;14.20;12.70;;;;;;;9.25;87.47;100362.47;5085319;28;20596;-76
2021/05/19 03:38:43;;;;;;;14.43;13.07;;;;;;;9.23;88.24;100366.81;5084020;28;20929;-75
2021/05/19 03:41:09;;;;;;;13.17;11.97;;;;;;;9.33;87.44;100364.94;5084236;28;20216;-77
2021/05/19 03:43:36;;;;;;;14.33;13.27;;;;;;;9.22;87.24;100367.72;5083345;28;20233;-76
2021/05/19 03:46:03;;;;;;;14.67;13.47;;;;;;;9.28;87.72;100370.25;5083372;28;21058;-74
2021/05/19 03:48:29;;;;;;;15.97;14.67;;;;;;;9.02;87.29;100370.63;5083417;28;20251;-77
2021/05/19 03:50:56;;;;;;;16.40;15.10;;;;;;;9.00;88.34;100376.69;5083868;28;20214;-76
2021/05/19 03:53:21;;;;;;;16.43;15.03;;;;;;;8.89;88.31;100376.84;5084165;28;20537;-75
2021/05/19 03:55:49;;;;;;;16.33;14.93;;;;;;;8.87;88.63;100373.41;5083953;28;20259;-76
2021/05/19 03:58:15;;;;;;;16.20;14.90;;;;;;;8.90;88.48;100381.16;5083591;28;20225;-75
2021/05/19 04:00:42;;;;;;;18.77;16.60;;;;;;;8.77;88.22;100374.41;5083480;28;20248;-74
2021/05/19 04:03:08;;;;;;;16.80;15.40;;;;;;;8.70;88.58;100374.50;5082747;28;20219;-76
2021/05/19 04:05:36;;;;;;;17.43;15.87;;;;;;;8.86;89.04;100379.47;5084031;28;20244;-76
2021/05/19 04:08:03;;;;;;;16.23;14.93;;;;;;;8.99;89.00;100375.84;5083291;28;20274;-76
2021/05/19 04:10:29;;;;;;;15.53;14.23;;;;;;;8.86;88.96;100380.38;5083323;28;20303;-75
2021/05/19 04:12:56;;;;;;;16.27;14.87;;;;;;;8.83;88.92;100380.41;5083385;28;20219;-77
2021/05/19 04:15:24;;;;;;;16.23;14.93;;;;;;;8.77;88.75;100385.69;5083529;28;20250;-76
2021/05/19 04:17:50;;;;;;;17.03;15.63;;;;;;;8.59;89.26;100381.56;5083267;28;20207;-75
2021/05/19 04:20:17;;;;;;;17.40;15.90;;;;;;;8.55;89.97;100388.53;5083130;28;20255;-76
2021/05/19 04:22:43;;;;;;;16.67;15.37;;;;;;;8.52;89.62;100392.91;5083654;28;20215;-79
2021/05/19 04:25:10;;;;;;;17.83;16.30;;;;;;;8.58;89.69;100391.97;5083094;28;20398;-74
2021/05/19 04:27:37;;;;;;;19.00;17.20;;;;;;;8.54;89.75;100398.94;5083661;28;20315;-77
2021/05/19 04:30:06;;;;;;;17.50;16.00;;;;;;;8.59;88.86;100396.31;5083558;28;20342;-76
2021/05/19 04:32:32;;;;;;;16.93;15.43;;;;;;;8.52;89.43;100398.09;5082937;28;20678;-76
2021/05/19 04:34:58;;;;;;;15.37;14.17;;;;;;;8.63;88.89;100404.06;5082638;28;20208;-75
2021/05/19 04:37:24;;;;;;;16.43;15.03;;;;;;;8.67;88.54;100407.50;5083351;28;20203;-76
2021/05/19 04:39:50;;;;;;;16.40;14.97;;;;;;;8.80;88.38;100409.09;5082989;28;20310;-76
2021/05/19 04:42:15;;;;;;;16.13;14.57;;;;;;;8.82;87.45;100414.25;5083583;28;20207;-74
2021/05/19 04:44:41;;;;;;;15.23;14.03;;;;;;;8.76;87.51;100420.41;5082775;28;20589;-76
2021/05/19 04:47:08;;;;;;;16.53;15.23;;;;;;;8.58;87.27;100431.00;5082594;28;20315;-74
2021/05/19 04:49:34;;;;;;;17.90;16.40;;;;;;;8.14;89.28;100438.34;5082248;28;20813;-76
2021/05/19 04:52:00;;;;;;;19.13;17.47;;;;;;;8.12;89.85;100435.75;5082838;28;20298;-76
2021/05/19 04:54:26;;;;;;;20.97;17.60;;;;;;;8.24;89.66;100437.38;5083323;28;20406;-75
2021/05/19 04:56:53;;;;;;;18.40;16.80;;;;;;;8.36;89.48;100444.19;5082075;28;20205;-76
2021/05/19 04:59:19;;;;;;;18.80;17.30;;;;;;;8.48;89.28;100436.31;5082608;28;20220;-76
2021/05/19 05:01:44;;;;;;;18.47;16.80;;;;;;;8.59;88.41;100449.22;5082126;28;20204;-74
2021/05/19 05:04:11;;;;;;;18.67;17.07;;;;;;;8.58;88.48;100451.81;5082160;28;20211;-76
2021/05/19 05:06:37;;;;;;;19.00;17.40;;;;;;;8.51;88.84;100451.88;5082840;28;20297;-74
2021/05/19 05:09:03;;;;;;;18.70;17.07;;;;;;;8.70;89.50;100451.69;5082837;28;20718;-77
2021/05/19 05:11:29;;;;;;;17.58;16.25;;;;;;;8.62;88.38;100454.41;5082670;28;20969;-77
2021/05/19 05:13:56;;;;;;;18.63;17.13;;;;;;;8.72;88.83;100450.81;5081736;28;20244;-75
2021/05/19 05:16:22;;;;;;;17.60;16.10;;;;;;;8.79;88.38;100456.78;5082963;28;20227;-77
2021/05/19 05:18:47;;;;;;;19.07;17.57;;;;;;;8.79;87.81;100459.41;5081595;28;20698;-77
2021/05/19 05:21:14;;;;;;;18.77;17.17;;;;;;;8.84;88.04;100446.31;5082279;28;20207;-75
2021/05/19 05:23:40;;;;;;;16.80;15.40;;;;;;;9.02;88.19;100451.31;5082487;28;20208;-76
2021/05/19 05:26:06;;;;;;;17.63;16.30;;;;;;;8.94;87.35;100458.38;5082669;28;20250;-77
2021/05/19 05:28:32;;;;;;;16.77;15.37;;;;;;;9.08;87.80;100453.00;5082042;28;20228;-75
2021/05/19 05:30:59;;;;;;;17.97;16.57;;;;;;;9.02;87.61;100448.72;5082120;28;20201;-77
2021/05/19 05:33:25;;;;;;;19.43;17.57;;;;;;;9.03;87.74;100453.03;5081189;28;20295;-75
2021/05/19 05:35:51;;;;;;;16.53;15.27;;;;;;;9.18;87.43;100453.72;5082796;28;20212;-77
2021/05/19 05:38:18;;;;;;;18.50;17.00;;;;;;;9.07;87.28;100449.50;5082538;28;20220;-77
2021/05/19 05:40:44;;;;;;;18.33;16.83;;;;;;;9.13;86.98;100444.22;5082194;28;20205;-75
2021/05/19 05:43:10;;;;;;;18.40;16.70;;;;;;;9.01;87.34;100448.72;5082520;28;20234;-77
2021/05/19 05:45:36;;;;;;;17.30;15.60;;;;;;;9.06;87.37;100455.63;5081786;28;20574;-76
2021/05/19 05:48:02;;;;;;;17.27;15.87;;;;;;;8.82;87.87;100446.34;5081778;28;20277;-75
2021/05/19 05:50:29;;;;;;;19.03;17.50;;;;;;;8.81;88.68;100456.78;5082177;28;20234;-77
2021/05/19 05:52:55;;;;;;;19.37;17.57;;;;;;;8.87;89.77;100461.91;5081451;28;20206;-77
2021/05/19 05:55:22;;;;;;;16.83;15.53;;;;;;;8.99;89.13;100458.31;5082708;28;20566;-78
2021/05/19 05:57:48;;;;;;;16.10;14.80;;;;;;;9.09;87.89;100468.56;5082081;28;20770;-76
2021/05/19 06:00:16;;;;;;;18.37;16.77;;;;;;;9.13;87.84;100465.06;5082040;28;20252;-77
2021/05/19 06:02:42;;;;;;;16.90;15.33;;;;;;;9.16;86.71;100461.56;5081310;28;20692;-75
2021/05/19 06:05:10;;;;;;;16.70;15.33;;;;;;;9.31;87.21;100457.88;5081699;28;20677;-77
2021/05/19 06:07:35;;;;;;;16.27;14.97;;;;;;;9.42;86.55;100470.78;5084236;28;20261;-77
2021/05/19 06:10:01;;;;;;;15.40;14.30;;;;;;;9.35;85.65;100472.59;5085655;28;20279;-77
2021/05/19 06:12:28;;;;;;;15.83;14.57;;;;;;;9.33;85.99;100480.41;5086289;28;20220;-77
2021/05/19 06:14:54;;;;;;;17.30;15.97;;;;;;;9.37;86.39;100481.25;5086359;28;20208;-77
2021/05/19 06:17:20;;;;;;;17.43;15.93;;;;;;;9.49;86.71;100483.72;5086529;28;20214;-75
2021/05/19 06:19:46;;;;;;;16.17;14.77;;;;;;;9.45;86.17;100484.59;5086617;28;20240;-77
2021/05/19 06:22:12;;;;;;;15.77;14.47;;;;;;;9.49;86.04;100485.44;5086370;28;20351;-77
2021/05/19 06:24:38;;;;;;;16.90;15.60;;;;;;;9.51;86.16;100492.38;5086371;28;20204;-77
2021/05/19 06:27:04;;;;;;;17.17;15.63;;;;;;;9.72;86.22;100499.00;5086089;28;21092;-77
2021/05/19 06:29:31;;;;;;;17.00;15.50;;;;;;;9.84;85.83;100492.75;5086401;28;20492;-77
2021/05/19 06:31:57;;;;;;;15.83;14.63;;;;;;;9.69;84.64;100493.84;5086573;28;20286;-75
2021/05/19 06:34:23;;;;;;;16.80;15.50;;;;;;;9.82;85.09;100486.69;5085797;28;20205;-77
2021/05/19 06:36:51;;;;;;;15.33;14.13;;;;;;;9.79;84.37;100491.97;5086397;28;20211;-77
2021/05/19 06:39:19;;;;;;;15.90;14.67;;;;;;;9.69;83.95;100493.84;5086299;28;20267;-77
2021/05/19 06:41:47;;;;;;;15.07;13.87;;;;;;;9.72;83.89;100491.19;5086558;28;20230;-77
2021/05/19 06:44:13;;;;;;;16.80;15.50;;;;;;;9.82;84.08;100488.44;5086111;28;20212;-77
2021/05/19 06:46:41;;;;;;;15.00;13.80;;;;;;;9.88;82.87;100496.19;5085538;28;20253;-76
2021/05/19 06:49:07;;;;;;;15.13;13.90;;;;;;;9.92;84.15;100488.28;5085803;28;20234;-77
2021/05/19 06:51:33;;;;;;;15.10;14.00;;;;;;;9.99;82.13;100491.66;5085993;28;20245;-76
2021/05/19 06:53:59;;;;;;;13.97;12.87;;;;;;;9.99;81.10;100488.16;5085696;28;20241;-76
2021/05/19 06:56:26;;;;;;;12.43;11.37;;;;;;;10.10;81.27;100488.88;5086601;28;20228;-77
2021/05/19 06:58:53;;;;;;;13.07;12.07;;;;;;;10.21;80.64;100486.97;5086319;28;20967;-77
2021/05/19 07:01:19;;;;;;;13.40;12.30;;;;;;;10.26;81.04;100489.47;5085918;28;20205;-76
2021/05/19 07:03:46;;;;;;;13.23;12.23;;;;;;;10.32;81.24;100494.63;5085501;28;20205;-77
2021/05/19 07:06:12;;;;;;;13.40;12.33;;;;;;;10.41;80.82;100493.63;5086146;28;20219;-76
2021/05/19 07:08:38;;;;;;;14.10;13.00;;;;;;;10.44;80.51;100486.56;5084980;28;20229;-77
2021/05/19 07:11:04;;;;;;;13.50;12.40;;;;;;;10.57;80.39;100489.84;5085663;28;20205;-77
2021/05/19 07:13:30;;;;;;;13.20;12.20;;;;;;;10.67;79.47;100490.53;5084488;28;20260;-77
2021/05/19 07:15:56;;;;;;;12.97;11.97;;;;;;;10.68;80.30;100494.84;5085348;28;20217;-77
2021/05/19 07:18:23;;;;;;;14.33;13.13;;;;;;;10.77;80.57;100499.91;5083997;28;20271;-76
2021/05/19 07:20:49;;;;;;;13.80;12.70;;;;;;;10.95;80.68;100495.25;5084851;28;20644;-76
2021/05/19 07:23:16;;;;;;;11.17;10.37;;;;;;;10.87;78.41;100500.59;5084798;28;20204;-76
2021/05/19 07:25:42;;;;;;;11.73;10.83;;;;;;;10.73;78.20;100499.09;5085173;28;20243;-76
2021/05/19 07:28:09;;;;;;;12.70;11.60;;;;;;;10.88;79.09;100499.69;5085673;28;20231;-76
2021/05/19 07:30:35;;;;;;;12.13;11.13;;;;;;;11.09;77.89;100499.28;5085652;28;20796;-77
2021/05/19 07:33:01;;;;;;;12.17;11.17;;;;;;;10.92;77.64;100503.97;5084420;28;20203;-77
2021/05/19 07:35:28;;;;;;;9.30;8.50;;;;;;;11.00;76.50;100502.09;5084973;28;20206;-76
2021/05/19 07:37:55;;;;;;;10.77;9.97;;;;;;;11.15;77.30;100507.91;5085139;28;20215;-76
2021/05/19 07:40:21;;;;;;;10.57;9.77;;;;;;;11.28;76.18;100494.56;5084797;28;20225;-78
2021/05/19 07:42:47;;;;;;;8.67;7.97;;;;;;;11.48;75.23;100498.50;5084992;28;20301;-77
2021/05/19 07:45:14;;;;;;;8.73;8.10;;;;;;;11.30;75.39;100503.22;5086536;28;20209;-78
2021/05/19 07:47:40;;;;;;;8.67;7.93;;;;;;;11.28;75.34;100502.38;5086514;28;20233;-79
2021/05/19 07:50:07;;;;;;;7.73;7.20;;;;;;;11.18;74.54;100506.09;5085641;28;20224;-78
2021/05/19 07:52:33;;;;;;;8.00;7.30;;;;;;;11.22;74.85;100504.25;5083289;28;20197;-75
2021/05/19 07:55:02;;;;;;;7.93;7.27;;;;;;;11.52;73.87;100500.16;5084275;28;20208;-77
2021/05/19 07:57:39;;;;;;;8.20;7.60;;;;;;;11.75;73.08;100498.75;5084549;28;20280;-76
2021/05/19 08:00:09;;;;;;;9.20;8.40;;;;;;;11.84;74.76;100507.25;5084707;28;20224;-77
2021/05/19 08:02:35;;;;;;;9.07;8.33;;;;;;;11.97;74.32;100507.88;5083159;28;20201;-75
2021/05/19 08:05:01;;;;;;;9.07;8.37;;;;;;;11.67;73.31;100505.03;5084748;28;20201;-76
2021/05/19 08:07:27;;;;;;;9.97;9.20;;;;;;;11.54;74.97;100500.97;5084889;28;20230;-76
2021/05/19 08:09:53;;;;;;;10.63;9.93;;;;;;;11.53;74.74;100502.75;5083443;28;20319;-75
2021/05/19 08:12:19;;;;;;;9.43;8.67;;;;;;;11.47;75.30;100502.84;5085093;28;20292;-76
2021/05/19 08:14:45;;;;;;;7.47;6.87;;;;;;;11.55;72.98;100502.69;5083718;27;20683;-76
2021/05/19 08:17:12;;;;;;;7.27;6.77;;;;;;;11.62;72.17;100500.81;5084314;28;20209;-74
2021/05/19 08:19:38;;;;;;;7.63;7.13;;;;;;;11.72;71.66;100504.94;5083964;28;20226;-76
2021/05/19 08:22:06;;;;;;;7.83;7.33;;;;;;;11.97;72.43;100501.78;5083937;28;20721;-77
2021/05/19 08:24:31;;;;;;;7.97;7.13;;;;;;;11.83;72.44;100510.78;5084445;28;20248;-80
2021/05/19 08:26:57;;;;;;;7.67;7.00;;;;;;;11.91;71.83;100505.38;5085312;28;20208;-78
2021/05/19 08:29:24;;;;;;;8.43;7.73;;;;;;;11.96;72.14;100506.16;5085162;28;20235;-76
2021/05/19 08:31:50;;;;;;;6.70;6.20;;;;;;;12.01;70.79;100503.41;5083890;28;20248;-76
2021/05/19 08:34:16;;;;;;;6.00;5.50;;;;;;;11.98;70.98;100500.88;5083942;28;20263;-77
2021/05/19 08:36:42;;;;;;;7.00;6.47;;;;;;;11.90;70.37;100507.16;5084749;28;21148;-75
2021/05/19 08:39:08;;;;;;;6.03;5.57;;;;;;;12.00;68.10;100494.72;5084079;28;21088;-77
2021/05/19 08:41:34;;;;;;;5.77;5.27;;;;;;;12.20;69.17;100493.38;5084755;28;20234;-77
2021/05/19 08:44:00;;;;;;;5.90;5.50;;;;;;;12.32;66.61;100493.91;5083653;28;20629;-75
2021/05/19 08:46:28;;;;;;;6.63;6.13;;;;;;;12.23;68.46;100502.00;5084484;28;20308;-78
2021/05/19 08:49:01;;;;;;;4.73;4.43;;;;;;;12.27;68.65;100495.81;5083262;28;20229;-77
2021/05/19 08:51:27;;;;;;;5.80;5.40;;;;;;;12.48;68.59;100494.38;5083813;28;20205;-77
2021/05/19 08:53:53;;;;;;;7.23;6.60;;;;;;;12.47;69.74;100500.53;5084308;28;20209;-78
2021/05/19 08:56:19;;;;;;;6.97;6.37;;;;;;;12.49;67.81;100501.34;5083631;28;20209;-77
2021/05/19 08:58:45;;;;;;;5.33;5.03;;;;;;;12.71;67.58;100498.16;5084154;28;20275;-77
2021/05/19 09:01:19;;;;;;;4.73;4.43;;;;;;;12.94;65.02;100488.81;5083706;28;20709;-78
2021/05/19 09:03:45;;;;;;;4.73;4.43;;;;;;;12.83;65.60;100487.34;5083357;28;20245;-77
2021/05/19 09:06:21;;;;;;;6.07;5.60;;;;;;;12.95;65.96;100487.94;5084233;28;20232;-78
2021/05/19 09:08:46;;;;;;;5.37;5.07;;;;;;;12.88;66.28;100495.97;5082700;28;20230;-75
2021/05/19 09:11:13;;;;;;;5.30;4.90;;;;;;;12.74;64.22;100497.22;5084274;28;20296;-77
2021/05/19 09:13:42;;;;;;;4.40;4.10;;;;;;;12.84;65.71;100493.44;5082998;28;20311;-78
2021/05/19 09:16:10;;;;;;;4.33;4.03;;;;;;;12.54;64.73;100498.59;5083433;28;20213;-77
2021/05/19 09:18:50;;;;;;;4.13;3.83;;;;;;;12.43;65.99;100501.50;5083007;28;20271;-75
2021/05/19 09:21:38;;;;;;;4.07;3.70;;;;;;;12.61;65.05;100500.16;5082376;28;20262;-77
2021/05/19 09:24:08;;;;;;;4.17;3.87;;;;;;;12.83;66.45;100494.34;5082438;28;20208;-76
2021/05/19 09:26:34;;;;;;;3.40;3.20;;;;;;;12.94;64.49;100492.28;5082819;28;20223;-76
2021/05/19 09:29:22;;;;;;;4.03;3.73;;;;;;;13.21;64.45;100493.25;5083579;28;20258;-78
2021/05/19 09:31:53;;;;;;;5.10;4.70;;;;;;;13.25;65.85;100492.28;5083581;28;20241;-78
2021/05/19 09:34:24;;;;;;;4.30;3.90;;;;;;;13.26;65.99;100494.00;5082761;28;20244;-78
2021/05/19 09:36:50;;;;;;;2.73;2.50;;;;;;;12.97;62.93;100501.84;5083319;28;20255;-76
2021/05/19 09:39:16;;;;;;;3.27;2.90;;;;;;;12.96;64.67;100494.88;5082967;28;20235;-78
2021/05/19 09:41:42;;;;;;;2.80;2.60;;;;;;;13.28;64.21;100492.19;5083635;28;20231;-77
2021/05/19 09:44:10;;;;;;;3.07;2.60;;;;;;;13.19;58.73;100484.59;5083193;28;20212;-78
2021/05/19 09:46:38;;;;;;;3.90;2.20;;;;;;;13.23;59.37;100478.34;5083769;28;20237;-78
2021/05/19 09:49:18;;;;;;;2.20;1.73;;;;;;;13.18;58.25;100480.28;5082564;28;20263;-78
2021/05/19 09:51:47;;;;;;;2.30;1.60;;;;;;;13.39;58.04;100477.94;5083263;28;20683;-77
2021/05/19 09:54:27;;;;;;;2.07;1.40;;;;;;;13.62;58.02;100482.50;5083929;28;20253;-77
2021/05/19 09:56:58;;;;;;;1.50;1.40;;;;;;;13.67;56.61;100480.56;5083470;28;20204;-78
2021/05/19 09:59:24;;;;;;;1.90;1.80;;;;;;;13.72;56.94;100483.06;5083923;28;20743;-78
2021/05/19 10:01:51;;;;;;;1.40;1.30;;;;;;;13.77;57.64;100484.63;5083291;28;20205;-77
2021/05/19 10:04:18;;;;;;;1.47;1.37;;;;;;;13.57;57.99;100484.38;5082871;28;20221;-77
2021/05/19 10:06:46;;;;;;;1.97;1.53;;;;;;;13.88;59.20;100481.66;5083416;28;20257;-77
2021/05/19 10:09:12;;;;;;;1.40;1.30;;;;;;;14.17;56.77;100480.72;5082831;28;20765;-78
2021/05/19 10:11:38;;;;;;;1.47;1.37;;;;;;;14.08;55.92;100478.41;5084170;28;20213;-78
2021/05/19 10:14:09;;;;;;;2.40;1.40;;;;;;;14.14;57.59;100483.44;5082844;28;20602;-78
2021/05/19 10:16:35;;;;;;;2.00;1.80;;;;;;;14.28;56.95;100483.00;5084227;28;20214;-76
2021/05/19 10:19:01;;;;;;;1.97;1.33;;;;;;;14.48;56.39;100474.44;5083293;28;20305;-78
2021/05/19 10:21:30;;;;;;;2.07;1.57;;;;;;;14.37;56.87;100474.81;5082523;28;20235;-78
2021/05/19 10:24:03;;;;;;;1.60;1.30;;;;;;;14.50;55.11;100475.22;5083337;28;20216;-77
2021/05/19 10:26:31;;;;;;;1.83;1.70;;;;;;;14.02;56.84;100479.44;5083350;28;20681;-77
2021/05/19 10:28:59;;;;;;;2.43;1.53;;;;;;;14.25;57.16;100465.56;5083478;28;20249;-77
2021/05/19 10:31:28;;;;;;;1.43;1.20;;;;;;;14.13;57.08;100455.47;5083237;28;20206;-77
2021/05/19 10:33:55;;;;;;;1.80;1.50;;;;;;;14.40;55.99;100458.06;5082542;28;20677;-76
2021/05/19 10:36:39;;;;;;;1.37;1.27;;;;;;;14.45;54.59;100462.28;5084058;28;20209;-78
2021/05/19 10:39:26;;;;;;;6.90;1.70;;;;;;;14.44;54.40;100457.91;5082867;28;20234;-78
2021/05/19 10:41:54;;;;;;;1.90;1.27;;;;;;;14.93;54.67;100452.72;5083427;28;20305;-76
2021/05/19 10:44:21;;;;;;;1.47;1.37;;;;;;;14.81;55.58;100458.44;5082722;28;20685;-77
2021/05/19 10:46:57;;;;;;;1.93;1.30;;;;;;;14.94;54.98;100454.41;5083664;28;20575;-77
2021/05/19 10:49:57;;;;;;;1.37;1.20;;;;;;;15.04;55.00;100453.19;5082197;28;20226;-78
2021/05/19 10:52:33;;;;;;;2.80;1.20;;;;;;;15.05;53.59;100443.53;5083667;28;20250;-77
2021/05/19 10:57:50;;;;;;;2.20;1.20;;;;;;;15.36;50.91;100439.72;5086603;28;20218;-77
2021/05/19 11:00:21;;;;;;;1.67;1.00;;;;;;;15.36;50.46;100435.31;5087165;28;20226;-77
2021/05/19 11:03:13;;;;;;;1.80;1.60;;;;;;;15.38;54.09;100441.38;5086054;28;20763;-77
2021/05/19 11:06:18;;;;;;;2.20;1.80;;;;;;;15.24;55.31;100448.94;5086989;28;20212;-77
2021/05/19 11:08:44;;;;;;;2.37;1.80;;;;;;;14.98;53.73;100440.25;5086450;28;20320;-78
2021/05/19 11:11:32;;;;;;;2.47;1.70;;;;;;;14.62;54.89;100447.72;5086557;28;20242;-78
2021/05/19 11:14:04;;;;;;;1.90;1.80;;;;;;;14.48;56.66;100451.63;5085552;28;20229;-77
2021/05/19 11:16:57;;;;;;;2.53;1.90;;;;;;;14.77;55.52;100441.06;5086775;28;20216;-79
2021/05/19 11:19:27;;;;;;;2.67;2.00;;;;;;;15.33;54.58;100440.69;5085656;28;20234;-76
2021/05/19 11:22:02;;;;;;;2.30;2.10;;;;;;;15.60;53.30;100444.03;5085116;28;20241;-77
2021/05/19 11:24:28;;;;;;;3.73;2.03;;;;;;;16.07;52.61;100435.13;5085457;28;20317;-75